sensor_id;sensor_type;location;lat;lon;timestamp;temperature;humidity
64638;HTU21D;51049;45.046;38.950;2023-04-03T00:00:59;11.76;42.94
64638;HTU21D;51049;45.046;38.950;2023-04-03T00:03:28;11.77;42.97
64638;HTU21D;51049;45.046;38.950;2023-04-03T00:05:55;11.78;43.02
64638;HTU21D;51049;45.046;38.950;2023-04-03T00:08:34;11.82;43.06
64638;HTU21D;51049;45.046;38.950;2023-04-03T00:11:08;11.82;43.06
64638;HTU21D;51049;45.046;38.950;2023-04-03T00:13:34;11.84;43.10
64638;HTU21D;51049;45.046;38.950;2023-04-03T00:16:06;11.83;43.15
64638;HTU21D;51049;45.046;38.950;2023-04-03T00:18:36;11.82;43.23
64638;HTU21D;51049;45.046;38.950;2023-04-03T00:21:12;11.84;43.26
64638;HTU21D;51049;45.046;38.950;2023-04-03T00:23:38;11.87;43.29
64638;HTU21D;51049;45.046;38.950;2023-04-03T00:26:11;11.89;43.29
64638;HTU21D;51049;45.046;38.950;2023-04-03T00:28:40;11.91;43.29
64638;HTU21D;51049;45.046;38.950;2023-04-03T00:31:06;11.93;43.28
64638;HTU21D;51049;45.046;38.950;2023-04-03T00:33:32;11.96;43.30
64638;HTU21D;51049;45.046;38.950;2023-04-03T00:36:10;11.97;43.35
64638;HTU21D;51049;45.046;38.950;2023-04-03T00:38:46;11.97;43.35
64638;HTU21D;51049;45.046;38.950;2023-04-03T00:41:15;11.96;43.38
64638;HTU21D;51049;45.046;38.950;2023-04-03T00:43:55;11.91;43.42
64638;HTU21D;51049;45.046;38.950;2023-04-03T00:46:26;11.92;43.47
64638;HTU21D;51049;45.046;38.950;2023-04-03T00:48:55;11.92;43.49
64638;HTU21D;51049;45.046;38.950;2023-04-03T00:51:37;11.93;43.51
64638;HTU21D;51049;45.046;38.950;2023-04-03T00:54:08;11.91;43.53
64638;HTU21D;51049;45.046;38.950;2023-04-03T00:56:45;11.93;43.56
64638;HTU21D;51049;45.046;38.950;2023-04-03T00:59:17;11.93;43.60
64638;HTU21D;51049;45.046;38.950;2023-04-03T01:02:22;11.93;43.63
64638;HTU21D;51049;45.046;38.950;2023-04-03T01:05:02;11.94;43.61
64638;HTU21D;51049;45.046;38.950;2023-04-03T01:07:46;11.92;43.66
64638;HTU21D;51049;45.046;38.950;2023-04-03T01:10:21;11.97;43.66
64638;HTU21D;51049;45.046;38.950;2023-04-03T01:12:52;11.98;43.68
64638;HTU21D;51049;45.046;38.950;2023-04-03T01:15:28;11.99;43.71
64638;HTU21D;51049;45.046;38.950;2023-04-03T01:18:08;12.02;43.70
64638;HTU21D;51049;45.046;38.950;2023-04-03T01:23:39;12.06;43.66
64638;HTU21D;51049;45.046;38.950;2023-04-03T01:26:27;12.07;43.72
64638;HTU21D;51049;45.046;38.950;2023-04-03T01:29:03;12.11;43.71
64638;HTU21D;51049;45.046;38.950;2023-04-03T01:31:43;12.14;43.72
64638;HTU21D;51049;45.046;38.950;2023-04-03T01:34:13;12.16;43.68
64638;HTU21D;51049;45.046;38.950;2023-04-03T01:36:42;12.17;43.71
64638;HTU21D;51049;45.046;38.950;2023-04-03T01:39:13;12.19;43.74
64638;HTU21D;51049;45.046;38.950;2023-04-03T01:41:43;12.21;43.75
64638;HTU21D;51049;45.046;38.950;2023-04-03T01:44:20;12.26;43.76
64638;HTU21D;51049;45.046;38.950;2023-04-03T01:46:47;12.32;43.75
64638;HTU21D;51049;45.046;38.950;2023-04-03T01:49:14;12.36;43.74
64638;HTU21D;51049;45.046;38.950;2023-04-03T01:51:40;12.44;43.71
64638;HTU21D;51049;45.046;38.950;2023-04-03T01:54:07;12.50;43.66
64638;HTU21D;51049;45.046;38.950;2023-04-03T01:56:41;12.57;43.65
64638;HTU21D;51049;45.046;38.950;2023-04-03T01:59:10;12.61;43.63
64638;HTU21D;51049;45.046;38.950;2023-04-03T02:01:37;12.62;43.65
64638;HTU21D;51049;45.046;38.950;2023-04-03T02:04:29;12.64;43.73
64638;HTU21D;51049;45.046;38.950;2023-04-03T02:06:56;12.62;43.78
64638;HTU21D;51049;45.046;38.950;2023-04-03T02:09:22;12.61;43.84
64638;HTU21D;51049;45.046;38.950;2023-04-03T02:11:48;12.59;43.90
64638;HTU21D;51049;45.046;38.950;2023-04-03T02:14:18;12.55;44.00
64638;HTU21D;51049;45.046;38.950;2023-04-03T02:16:52;12.50;44.16
64638;HTU21D;51049;45.046;38.950;2023-04-03T02:19:27;12.48;44.22
64638;HTU21D;51049;45.046;38.950;2023-04-03T02:22:17;12.46;44.33
64638;HTU21D;51049;45.046;38.950;2023-04-03T02:24:50;12.44;44.34
64638;HTU21D;51049;45.046;38.950;2023-04-03T02:27:37;12.40;44.63
64638;HTU21D;51049;45.046;38.950;2023-04-03T02:30:04;12.38;44.70
64638;HTU21D;51049;45.046;38.950;2023-04-03T02:32:46;12.34;44.96
64638;HTU21D;51049;45.046;38.950;2023-04-03T02:35:25;12.31;45.12
64638;HTU21D;51049;45.046;38.950;2023-04-03T02:37:53;12.29;45.35
64638;HTU21D;51049;45.046;38.950;2023-04-03T02:40:23;12.26;45.64
64638;HTU21D;51049;45.046;38.950;2023-04-03T02:45:42;12.20;45.72
64638;HTU21D;51049;45.046;38.950;2023-04-03T02:48:24;12.19;45.83
64638;HTU21D;51049;45.046;38.950;2023-04-03T02:50:53;12.17;46.00
64638;HTU21D;51049;45.046;38.950;2023-04-03T02:53:27;12.14;46.20
64638;HTU21D;51049;45.046;38.950;2023-04-03T02:55:53;12.10;46.42
64638;HTU21D;51049;45.046;38.950;2023-04-03T02:58:31;12.03;47.18
64638;HTU21D;51049;45.046;38.950;2023-04-03T03:04:14;11.86;47.12
64638;HTU21D;51049;45.046;38.950;2023-04-03T03:06:46;11.77;47.41
64638;HTU21D;51049;45.046;38.950;2023-04-03T03:09:32;11.69;47.53
64638;HTU21D;51049;45.046;38.950;2023-04-03T03:12:11;11.63;47.79
64638;HTU21D;51049;45.046;38.950;2023-04-03T03:14:37;11.56;47.90
64638;HTU21D;51049;45.046;38.950;2023-04-03T03:17:03;11.53;47.97
64638;HTU21D;51049;45.046;38.950;2023-04-03T03:19:30;11.49;48.03
64638;HTU21D;51049;45.046;38.950;2023-04-03T03:22:05;11.45;48.38
64638;HTU21D;51049;45.046;38.950;2023-04-03T03:24:37;11.43;48.32
64638;HTU21D;51049;45.046;38.950;2023-04-03T03:27:10;11.40;48.67
64638;HTU21D;51049;45.046;38.950;2023-04-03T03:29:38;11.39;48.72
64638;HTU21D;51049;45.046;38.950;2023-04-03T03:32:11;11.34;49.08
64638;HTU21D;51049;45.046;38.950;2023-04-03T03:34:40;11.30;49.03
64638;HTU21D;51049;45.046;38.950;2023-04-03T03:37:07;11.29;49.08
64638;HTU21D;51049;45.046;38.950;2023-04-03T03:39:36;11.26;49.21
64638;HTU21D;51049;45.046;38.950;2023-04-03T03:42:05;11.24;49.31
64638;HTU21D;51049;45.046;38.950;2023-04-03T03:44:32;11.20;49.44
64638;HTU21D;51049;45.046;38.950;2023-04-03T03:47:03;11.18;49.57
64638;HTU21D;51049;45.046;38.950;2023-04-03T03:49:32;11.18;49.89
64638;HTU21D;51049;45.046;38.950;2023-04-03T03:52:12;11.17;49.96
64638;HTU21D;51049;45.046;38.950;2023-04-03T03:54:47;11.17;49.92
64638;HTU21D;51049;45.046;38.950;2023-04-03T03:57:15;11.18;50.05
64638;HTU21D;51049;45.046;38.950;2023-04-03T03:59:45;11.20;50.20
64638;HTU21D;51049;45.046;38.950;2023-04-03T04:02:21;11.23;50.21
64638;HTU21D;51049;45.046;38.950;2023-04-03T04:04:58;11.23;50.31
64638;HTU21D;51049;45.046;38.950;2023-04-03T04:07:36;11.23;50.36
64638;HTU21D;51049;45.046;38.950;2023-04-03T04:12:51;11.22;50.61
64638;HTU21D;51049;45.046;38.950;2023-04-03T04:15:23;11.23;50.88
64638;HTU21D;51049;45.046;38.950;2023-04-03T04:17:52;11.23;51.08
64638;HTU21D;51049;45.046;38.950;2023-04-03T04:20:28;11.22;51.17
64638;HTU21D;51049;45.046;38.950;2023-04-03T04:23:03;11.20;51.65
64638;HTU21D;51049;45.046;38.950;2023-04-03T04:25:32;11.20;51.42
64638;HTU21D;51049;45.046;38.950;2023-04-03T04:28:16;11.19;51.56
64638;HTU21D;51049;45.046;38.950;2023-04-03T04:30:51;11.18;52.02
64638;HTU21D;51049;45.046;38.950;2023-04-03T04:33:32;11.16;51.80
64638;HTU21D;51049;45.046;38.950;2023-04-03T04:36:35;11.16;51.89
64638;HTU21D;51049;45.046;38.950;2023-04-03T04:39:08;11.17;51.91
64638;HTU21D;51049;45.046;38.950;2023-04-03T04:42:04;11.16;52.08
64638;HTU21D;51049;45.046;38.950;2023-04-03T04:44:35;11.16;52.27
64638;HTU21D;51049;45.046;38.950;2023-04-03T04:47:03;11.16;52.40
64638;HTU21D;51049;45.046;38.950;2023-04-03T04:49:42;11.15;52.54
64638;HTU21D;51049;45.046;38.950;2023-04-03T04:52:14;11.14;52.67
64638;HTU21D;51049;45.046;38.950;2023-04-03T04:54:44;11.15;52.91
64638;HTU21D;51049;45.046;38.950;2023-04-03T04:57:31;11.18;53.66
64638;HTU21D;51049;45.046;38.950;2023-04-03T05:00:15;11.18;53.27
64638;HTU21D;51049;45.046;38.950;2023-04-03T05:02:44;11.19;53.09
64638;HTU21D;51049;45.046;38.950;2023-04-03T05:05:14;11.20;53.13
64638;HTU21D;51049;45.046;38.950;2023-04-03T05:07:43;11.24;53.60
64638;HTU21D;51049;45.046;38.950;2023-04-03T05:17:07;11.34;53.40
64638;HTU21D;51049;45.046;38.950;2023-04-03T05:20:31;11.38;53.21
64638;HTU21D;51049;45.046;38.950;2023-04-03T05:31:22;11.49;53.52
64638;HTU21D;51049;45.046;38.950;2023-04-03T05:34:22;11.54;53.60
64638;HTU21D;51049;45.046;38.950;2023-04-03T05:37:03;11.58;53.57
64638;HTU21D;51049;45.046;38.950;2023-04-03T05:40:00;11.61;53.61
64638;HTU21D;51049;45.046;38.950;2023-04-03T05:42:44;11.67;53.76
64638;HTU21D;51049;45.046;38.950;2023-04-03T05:49:56;11.75;53.81
64638;HTU21D;51049;45.046;38.950;2023-04-03T05:52:30;11.76;53.78
64638;HTU21D;51049;45.046;38.950;2023-04-03T05:55:02;11.77;53.94
64638;HTU21D;51049;45.046;38.950;2023-04-03T05:57:33;11.78;54.00
64638;HTU21D;51049;45.046;38.950;2023-04-03T06:00:20;11.81;54.16
64638;HTU21D;51049;45.046;38.950;2023-04-03T06:02:58;11.84;54.20
64638;HTU21D;51049;45.046;38.950;2023-04-03T06:05:54;11.86;54.45
64638;HTU21D;51049;45.046;38.950;2023-04-03T06:09:37;11.89;54.43
64638;HTU21D;51049;45.046;38.950;2023-04-03T06:12:29;11.92;54.51
64638;HTU21D;51049;45.046;38.950;2023-04-03T06:15:47;11.90;54.65
64638;HTU21D;51049;45.046;38.950;2023-04-03T06:18:26;11.90;54.59
64638;HTU21D;51049;45.046;38.950;2023-04-03T06:21:41;11.90;54.84
64638;HTU21D;51049;45.046;38.950;2023-04-03T06:31:54;11.92;55.16
64638;HTU21D;51049;45.046;38.950;2023-04-03T06:34:52;11.96;55.29
64638;HTU21D;51049;45.046;38.950;2023-04-03T06:41:09;12.01;55.31
64638;HTU21D;51049;45.046;38.950;2023-04-03T06:52:13;12.04;56.11
64638;HTU21D;51049;45.046;38.950;2023-04-03T07:37:22;11.92;56.17
64638;HTU21D;51049;45.046;38.950;2023-04-03T07:40:37;11.92;56.19
64638;HTU21D;51049;45.046;38.950;2023-04-03T07:47:00;11.91;56.42
64638;HTU21D;51049;45.046;38.950;2023-04-03T07:49:56;11.89;56.70
64638;HTU21D;51049;45.046;38.950;2023-04-03T07:53:00;11.90;56.72
64638;HTU21D;51049;45.046;38.950;2023-04-03T07:55:56;11.91;57.04
64638;HTU21D;51049;45.046;38.950;2023-04-03T08:02:44;11.96;57.06
64638;HTU21D;51049;45.046;38.950;2023-04-03T08:40:04;12.41;57.05
64638;HTU21D;51049;45.046;38.950;2023-04-03T08:46:17;12.42;57.16
64638;HTU21D;51049;45.046;38.950;2023-04-03T14:30:20;20.60;46.96
64638;HTU21D;51049;45.046;38.950;2023-04-03T14:33:21;19.91;47.71
64638;HTU21D;51049;45.046;38.950;2023-04-03T14:39:48;18.50;49.50
64638;HTU21D;51049;45.046;38.950;2023-04-03T14:43:08;18.17;49.74
64638;HTU21D;51049;45.046;38.950;2023-04-03T14:45:51;17.77;50.08
64638;HTU21D;51049;45.046;38.950;2023-04-03T14:48:49;17.46;50.53
64638;HTU21D;51049;45.046;38.950;2023-04-03T14:51:29;17.48;50.45
64638;HTU21D;51049;45.046;38.950;2023-04-03T14:53:58;17.61;50.13
64638;HTU21D;51049;45.046;38.950;2023-04-03T14:56:31;17.59;49.95
64638;HTU21D;51049;45.046;38.950;2023-04-03T14:59:18;17.33;50.16
64638;HTU21D;51049;45.046;38.950;2023-04-03T15:05:58;16.64;51.25
64638;HTU21D;51049;45.046;38.950;2023-04-03T15:08:30;16.39;51.56
64638;HTU21D;51049;45.046;38.950;2023-04-03T15:11:35;16.08;51.88
64638;HTU21D;51049;45.046;38.950;2023-04-03T15:17:38;15.58;52.60
64638;HTU21D;51049;45.046;38.950;2023-04-03T15:23:47;15.18;52.92
64638;HTU21D;51049;45.046;38.950;2023-04-03T15:30:18;14.87;53.17
64638;HTU21D;51049;45.046;38.950;2023-04-03T15:33:18;14.74;53.42
64638;HTU21D;51049;45.046;38.950;2023-04-03T15:36:52;14.60;53.48
64638;HTU21D;51049;45.046;38.950;2023-04-03T15:48:22;14.23;54.32
64638;HTU21D;51049;45.046;38.950;2023-04-03T16:14:31;13.66;54.96
64638;HTU21D;51049;45.046;38.950;2023-04-03T16:17:26;13.62;55.21
64638;HTU21D;51049;45.046;38.950;2023-04-03T16:21:18;13.58;55.15
64638;HTU21D;51049;45.046;38.950;2023-04-03T16:24:08;13.54;55.31
64638;HTU21D;51049;45.046;38.950;2023-04-03T16:26:55;13.50;55.30
64638;HTU21D;51049;45.046;38.950;2023-04-03T16:42:16;13.33;55.58
64638;HTU21D;51049;45.046;38.950;2023-04-03T17:08:35;12.97;56.07
64638;HTU21D;51049;45.046;38.950;2023-04-03T17:23:55;13.03;56.35
64638;HTU21D;51049;45.046;38.950;2023-04-03T17:27:32;13.04;56.45
64638;HTU21D;51049;45.046;38.950;2023-04-03T17:42:25;12.82;56.55
64638;HTU21D;51049;45.046;38.950;2023-04-03T17:53:01;12.53;56.81
64638;HTU21D;51049;45.046;38.950;2023-04-03T17:55:59;12.45;56.87
64638;HTU21D;51049;45.046;38.950;2023-04-03T17:59:04;12.37;57.01
64638;HTU21D;51049;45.046;38.950;2023-04-03T18:02:32;12.33;57.00
64638;HTU21D;51049;45.046;38.950;2023-04-03T18:15:47;12.07;57.16
64638;HTU21D;51049;45.046;38.950;2023-04-03T18:18:39;12.06;57.26
64638;HTU21D;51049;45.046;38.950;2023-04-03T18:21:12;12.05;57.29
64638;HTU21D;51049;45.046;38.950;2023-04-03T18:23:51;12.03;57.36
64638;HTU21D;51049;45.046;38.950;2023-04-03T18:26:39;12.01;57.36
64638;HTU21D;51049;45.046;38.950;2023-04-03T18:29:32;11.99;57.39
64638;HTU21D;51049;45.046;38.950;2023-04-03T18:32:20;11.92;57.44
64638;HTU21D;51049;45.046;38.950;2023-04-03T18:34:50;11.89;57.44
64638;HTU21D;51049;45.046;38.950;2023-04-03T18:37:28;11.84;57.55
64638;HTU21D;51049;45.046;38.950;2023-04-03T18:40:11;11.77;57.64
64638;HTU21D;51049;45.046;38.950;2023-04-03T18:43:19;11.76;57.74
64638;HTU21D;51049;45.046;38.950;2023-04-03T18:53:06;11.78;57.62
64638;HTU21D;51049;45.046;38.950;2023-04-03T18:59:28;11.74;57.65
64638;HTU21D;51049;45.046;38.950;2023-04-03T19:02:14;11.68;57.65
64638;HTU21D;51049;45.046;38.950;2023-04-03T19:04:59;11.63;57.79
64638;HTU21D;51049;45.046;38.950;2023-04-03T19:07:49;11.58;57.84
64638;HTU21D;51049;45.046;38.950;2023-04-03T19:13:39;11.53;57.89
64638;HTU21D;51049;45.046;38.950;2023-04-03T19:16:08;11.51;57.96
64638;HTU21D;51049;45.046;38.950;2023-04-03T19:18:37;11.49;58.00
64638;HTU21D;51049;45.046;38.950;2023-04-03T19:21:03;11.49;58.03
64638;HTU21D;51049;45.046;38.950;2023-04-03T19:23:32;11.49;58.06
64638;HTU21D;51049;45.046;38.950;2023-04-03T19:26:05;11.48;58.10
64638;HTU21D;51049;45.046;38.950;2023-04-03T19:28:35;11.46;58.10
64638;HTU21D;51049;45.046;38.950;2023-04-03T19:31:12;11.45;58.16
64638;HTU21D;51049;45.046;38.950;2023-04-03T19:33:42;11.41;58.18
64638;HTU21D;51049;45.046;38.950;2023-04-03T19:36:14;11.36;58.20
64638;HTU21D;51049;45.046;38.950;2023-04-03T19:38:49;11.33;58.24
64638;HTU21D;51049;45.046;38.950;2023-04-03T19:41:36;11.28;58.32
64638;HTU21D;51049;45.046;38.950;2023-04-03T19:44:06;11.26;58.30
64638;HTU21D;51049;45.046;38.950;2023-04-03T19:46:34;11.25;58.32
64638;HTU21D;51049;45.046;38.950;2023-04-03T19:49:15;11.24;58.33
64638;HTU21D;51049;45.046;38.950;2023-04-03T19:51:42;11.24;58.38
64638;HTU21D;51049;45.046;38.950;2023-04-03T19:54:10;11.24;58.42
64638;HTU21D;51049;45.046;38.950;2023-04-03T19:56:37;11.27;58.52
64638;HTU21D;51049;45.046;38.950;2023-04-03T19:59:03;11.28;58.44
64638;HTU21D;51049;45.046;38.950;2023-04-03T20:01:29;11.28;58.45
64638;HTU21D;51049;45.046;38.950;2023-04-03T20:03:58;11.28;58.47
64638;HTU21D;51049;45.046;38.950;2023-04-03T20:06:32;11.31;58.51
64638;HTU21D;51049;45.046;38.950;2023-04-03T20:09:01;11.34;58.47
64638;HTU21D;51049;45.046;38.950;2023-04-03T20:11:47;11.34;58.47
64638;HTU21D;51049;45.046;38.950;2023-04-03T20:14:16;11.32;58.47
64638;HTU21D;51049;45.046;38.950;2023-04-03T20:16:48;11.30;58.46
64638;HTU21D;51049;45.046;38.950;2023-04-03T20:19:17;11.27;58.53
64638;HTU21D;51049;45.046;38.950;2023-04-03T20:22:00;11.26;58.60
64638;HTU21D;51049;45.046;38.950;2023-04-03T20:24:26;11.24;58.52
64638;HTU21D;51049;45.046;38.950;2023-04-03T20:26:54;11.18;58.47
64638;HTU21D;51049;45.046;38.950;2023-04-03T20:29:25;11.14;58.52
64638;HTU21D;51049;45.046;38.950;2023-04-03T20:31:52;11.09;58.59
64638;HTU21D;51049;45.046;38.950;2023-04-03T20:34:21;11.00;58.68
64638;HTU21D;51049;45.046;38.950;2023-04-03T20:36:47;10.93;58.77
64638;HTU21D;51049;45.046;38.950;2023-04-03T20:39:17;10.86;58.85
64638;HTU21D;51049;45.046;38.950;2023-04-03T20:41:52;10.78;58.94
64638;HTU21D;51049;45.046;38.950;2023-04-03T20:44:19;10.68;59.04
64638;HTU21D;51049;45.046;38.950;2023-04-03T20:46:46;10.59;59.16
64638;HTU21D;51049;45.046;38.950;2023-04-03T20:49:28;10.51;59.25
64638;HTU21D;51049;45.046;38.950;2023-04-03T20:51:54;10.45;59.29
64638;HTU21D;51049;45.046;38.950;2023-04-03T20:54:20;10.36;59.37
64638;HTU21D;51049;45.046;38.950;2023-04-03T20:56:50;10.29;59.44
64638;HTU21D;51049;45.046;38.950;2023-04-03T20:59:23;10.22;59.51
64638;HTU21D;51049;45.046;38.950;2023-04-03T21:01:53;10.16;59.60
64638;HTU21D;51049;45.046;38.950;2023-04-03T21:19:08;9.76;59.80
64638;HTU21D;51049;45.046;38.950;2023-04-03T21:21:44;9.69;59.88
64638;HTU21D;51049;45.046;38.950;2023-04-03T21:24:15;9.64;59.95
64638;HTU21D;51049;45.046;38.950;2023-04-03T21:26:51;9.56;60.00
64638;HTU21D;51049;45.046;38.950;2023-04-03T21:29:20;9.52;60.08
64638;HTU21D;51049;45.046;38.950;2023-04-03T21:31:58;9.46;60.17
64638;HTU21D;51049;45.046;38.950;2023-04-03T21:34:30;9.40;60.20
64638;HTU21D;51049;45.046;38.950;2023-04-03T21:37:04;9.37;60.26
64638;HTU21D;51049;45.046;38.950;2023-04-03T21:39:34;9.32;60.30
64638;HTU21D;51049;45.046;38.950;2023-04-03T21:42:09;9.27;60.34
64638;HTU21D;51049;45.046;38.950;2023-04-03T21:44:42;9.25;60.36
64638;HTU21D;51049;45.046;38.950;2023-04-03T21:47:11;9.23;60.38
64638;HTU21D;51049;45.046;38.950;2023-04-03T21:49:40;9.20;60.41
64638;HTU21D;51049;45.046;38.950;2023-04-03T21:52:09;9.17;60.39
64638;HTU21D;51049;45.046;38.950;2023-04-03T21:54:45;9.11;60.32
64638;HTU21D;51049;45.046;38.950;2023-04-03T21:57:11;9.06;60.37
64638;HTU21D;51049;45.046;38.950;2023-04-03T21:59:46;9.02;60.45
64638;HTU21D;51049;45.046;38.950;2023-04-03T22:02:15;8.98;60.51
64638;HTU21D;51049;45.046;38.950;2023-04-03T22:04:41;8.94;60.57
64638;HTU21D;51049;45.046;38.950;2023-04-03T22:07:07;8.91;60.64
64638;HTU21D;51049;45.046;38.950;2023-04-03T22:09:45;8.88;60.71
64638;HTU21D;51049;45.046;38.950;2023-04-03T22:12:24;8.87;60.76
64638;HTU21D;51049;45.046;38.950;2023-04-03T22:15:01;8.87;60.78
64638;HTU21D;51049;45.046;38.950;2023-04-03T22:17:30;8.90;60.81
64638;HTU21D;51049;45.046;38.950;2023-04-03T22:20:01;8.96;60.89
64638;HTU21D;51049;45.046;38.950;2023-04-03T22:22:29;9.08;60.85
64638;HTU21D;51049;45.046;38.950;2023-04-03T22:24:55;9.21;60.76
64638;HTU21D;51049;45.046;38.950;2023-04-03T22:27:37;9.32;60.75
64638;HTU21D;51049;45.046;38.950;2023-04-03T22:30:04;9.44;60.67
64638;HTU21D;51049;45.046;38.950;2023-04-03T22:32:33;9.53;60.61
64638;HTU21D;51049;45.046;38.950;2023-04-03T22:35:01;9.59;60.52
64638;HTU21D;51049;45.046;38.950;2023-04-03T22:37:36;9.57;60.53
64638;HTU21D;51049;45.046;38.950;2023-04-03T22:43:06;9.53;60.70
64638;HTU21D;51049;45.046;38.950;2023-04-03T22:45:47;9.53;60.77
64638;HTU21D;51049;45.046;38.950;2023-04-03T22:48:16;9.51;60.76
64638;HTU21D;51049;45.046;38.950;2023-04-03T22:50:46;9.46;60.84
64638;HTU21D;51049;45.046;38.950;2023-04-03T22:53:13;9.40;60.94
64638;HTU21D;51049;45.046;38.950;2023-04-03T22:55:40;9.35;61.03
64638;HTU21D;51049;45.046;38.950;2023-04-03T22:58:11;9.30;61.14
64638;HTU21D;51049;45.046;38.950;2023-04-03T23:00:41;9.22;61.22
64638;HTU21D;51049;45.046;38.950;2023-04-03T23:03:14;9.18;61.32
64638;HTU21D;51049;45.046;38.950;2023-04-03T23:05:52;9.11;61.37
64638;HTU21D;51049;45.046;38.950;2023-04-03T23:08:24;9.06;61.46
64638;HTU21D;51049;45.046;38.950;2023-04-03T23:10:55;9.01;61.53
64638;HTU21D;51049;45.046;38.950;2023-04-03T23:13:25;8.95;61.61
64638;HTU21D;51049;45.046;38.950;2023-04-03T23:15:55;8.91;61.65
64638;HTU21D;51049;45.046;38.950;2023-04-03T23:18:24;8.88;61.71
64638;HTU21D;51049;45.046;38.950;2023-04-03T23:20:51;8.82;61.76
64638;HTU21D;51049;45.046;38.950;2023-04-03T23:23:23;8.80;61.81
64638;HTU21D;51049;45.046;38.950;2023-04-03T23:25:55;8.77;61.86
64638;HTU21D;51049;45.046;38.950;2023-04-03T23:28:35;8.74;61.91
64638;HTU21D;51049;45.046;38.950;2023-04-03T23:31:09;8.70;61.88
64638;HTU21D;51049;45.046;38.950;2023-04-03T23:33:41;8.65;61.93
64638;HTU21D;51049;45.046;38.950;2023-04-03T23:36:11;8.61;61.99
64638;HTU21D;51049;45.046;38.950;2023-04-03T23:38:38;8.59;62.02
64638;HTU21D;51049;45.046;38.950;2023-04-03T23:41:04;8.55;62.06
64638;HTU21D;51049;45.046;38.950;2023-04-03T23:43:30;8.51;62.11
64638;HTU21D;51049;45.046;38.950;2023-04-03T23:45:56;8.49;62.15
64638;HTU21D;51049;45.046;38.950;2023-04-03T23:48:23;8.45;62.19
64638;HTU21D;51049;45.046;38.950;2023-04-03T23:50:52;8.43;62.25
64638;HTU21D;51049;45.046;38.950;2023-04-03T23:53:21;8.42;62.29
64638;HTU21D;51049;45.046;38.950;2023-04-03T23:55:47;8.41;62.32
64638;HTU21D;51049;45.046;38.950;2023-04-03T23:58:17;8.41;62.33
